sensor_id;sensor_type;location;lat;lon;timestamp;pressure;altitude;pressure_sealevel;temperature;humidity
16777;BME280;8505;49.456;8.164;2022-08-03T00:01:33;-20524.69;;;19.76;78.97
16777;BME280;8505;49.456;8.164;2022-08-03T00:04:02;-20523.34;;;19.71;79.33
16777;BME280;8505;49.456;8.164;2022-08-03T00:06:31;-20525.75;;;19.79;78.49
16777;BME280;8505;49.456;8.164;2022-08-03T00:09:03;-20525.47;;;19.78;78.57
16777;BME280;8505;49.456;8.164;2022-08-03T00:11:31;-20524.69;;;19.76;78.95
16777;BME280;8505;49.456;8.164;2022-08-03T00:13:59;-20521.97;;;19.67;79.21
16777;BME280;8505;49.456;8.164;2022-08-03T00:16:27;-20521.81;;;19.66;79.34
16777;BME280;8505;49.456;8.164;2022-08-03T00:18:55;-20523.19;;;19.71;79.26
16777;BME280;8505;49.456;8.164;2022-08-03T00:21:23;-20520.59;;;19.62;79.63
16777;BME280;8505;49.456;8.164;2022-08-03T00:23:52;-20520.59;;;19.62;79.74
16777;BME280;8505;49.456;8.164;2022-08-03T00:26:19;-20519.38;;;19.58;79.88
16777;BME280;8505;49.456;8.164;2022-08-03T00:28:47;-20516.34;;;19.48;80.79
16777;BME280;8505;49.456;8.164;2022-08-03T00:31:16;-20511.78;;;19.33;81.78
16777;BME280;8505;49.456;8.164;2022-08-03T00:34:04;-20509.66;;;19.26;82.43
16777;BME280;8505;49.456;8.164;2022-08-03T00:36:32;-20508.00;;;19.20;82.89
16777;BME280;8505;49.456;8.164;2022-08-03T00:39:01;-20507.69;;;19.19;83.14
16777;BME280;8505;49.456;8.164;2022-08-03T00:41:29;-20506.47;;;19.15;83.30
16777;BME280;8505;49.456;8.164;2022-08-03T00:43:56;-20504.50;;;19.08;83.83
16777;BME280;8505;49.456;8.164;2022-08-03T00:46:24;-20503.44;;;19.05;84.44
16777;BME280;8505;49.456;8.164;2022-08-03T00:48:52;-20502.22;;;19.01;84.95
16777;BME280;8505;49.456;8.164;2022-08-03T00:51:20;-20501.00;;;18.97;85.17
16777;BME280;8505;49.456;8.164;2022-08-03T00:53:49;-20499.03;;;18.90;86.01
16777;BME280;8505;49.456;8.164;2022-08-03T00:56:18;-20497.50;;;18.85;86.24
16777;BME280;8505;49.456;8.164;2022-08-03T00:58:46;-20497.81;;;18.86;86.32
16777;BME280;8505;49.456;8.164;2022-08-03T01:01:14;-20498.13;;;18.87;86.45
16777;BME280;8505;49.456;8.164;2022-08-03T01:03:43;-20496.59;;;18.82;86.61
16777;BME280;8505;49.456;8.164;2022-08-03T01:06:15;-20497.81;;;18.86;86.30
16777;BME280;8505;49.456;8.164;2022-08-03T01:08:48;-20496.31;;;18.81;86.66
16777;BME280;8505;49.456;8.164;2022-08-03T01:11:26;-20496.47;;;18.82;86.83
16777;BME280;8505;49.456;8.164;2022-08-03T01:14:02;-20495.69;;;18.79;87.12
16777;BME280;8505;49.456;8.164;2022-08-03T01:16:52;-20494.03;;;18.73;87.38
16777;BME280;8505;49.456;8.164;2022-08-03T01:19:34;-20491.75;;;18.66;87.96
16777;BME280;8505;49.456;8.164;2022-08-03T01:22:16;-20490.53;;;18.62;88.17
16777;BME280;8505;49.456;8.164;2022-08-03T01:24:51;-20492.19;;;18.67;87.90
16777;BME280;8505;49.456;8.164;2022-08-03T01:27:28;-20492.66;;;18.69;87.54
16777;BME280;8505;49.456;8.164;2022-08-03T01:30:04;-20492.03;;;18.67;88.21
16777;BME280;8505;49.456;8.164;2022-08-03T01:32:36;-20489.91;;;18.60;88.33
16777;BME280;8505;49.456;8.164;2022-08-03T01:35:32;-20489.00;;;18.57;88.40
16777;BME280;8505;49.456;8.164;2022-08-03T01:38:09;-20486.56;;;18.49;89.30
16777;BME280;8505;49.456;8.164;2022-08-03T01:40:39;-20485.06;;;18.44;89.67
16777;BME280;8505;49.456;8.164;2022-08-03T01:43:09;-20485.06;;;18.44;89.74
16777;BME280;8505;49.456;8.164;2022-08-03T01:45:42;-20484.13;;;18.41;89.94
16777;BME280;8505;49.456;8.164;2022-08-03T01:48:11;-20486.56;;;18.49;89.56
16777;BME280;8505;49.456;8.164;2022-08-03T01:50:42;-20484.75;;;18.43;89.92
16777;BME280;8505;49.456;8.164;2022-08-03T01:53:13;-20483.84;;;18.39;90.22
16777;BME280;8505;49.456;8.164;2022-08-03T01:55:43;-20484.13;;;18.41;90.19
16777;BME280;8505;49.456;8.164;2022-08-03T01:58:14;-20483.84;;;18.39;90.18
16777;BME280;8505;49.456;8.164;2022-08-03T02:00:45;-20481.72;;;18.32;90.57
16777;BME280;8505;49.456;8.164;2022-08-03T02:03:14;-20481.25;;;18.31;90.65
16777;BME280;8505;49.456;8.164;2022-08-03T02:05:44;-20480.94;;;18.30;90.58
16777;BME280;8505;49.456;8.164;2022-08-03T02:08:12;-20482.63;;;18.35;90.98
16777;BME280;8505;49.456;8.164;2022-08-03T02:10:43;-20481.41;;;18.31;91.01
16777;BME280;8505;49.456;8.164;2022-08-03T02:13:14;-20480.34;;;18.28;91.44
16777;BME280;8505;49.456;8.164;2022-08-03T02:15:45;-20479.56;;;18.25;91.20
16777;BME280;8505;49.456;8.164;2022-08-03T02:18:13;-20480.19;;;18.27;91.40
16777;BME280;8505;49.456;8.164;2022-08-03T02:20:43;-20479.88;;;18.26;91.67
16777;BME280;8505;49.456;8.164;2022-08-03T02:23:10;-20476.69;;;18.16;92.34
16777;BME280;8505;49.456;8.164;2022-08-03T02:25:43;-20474.56;;;18.09;92.92
16777;BME280;8505;49.456;8.164;2022-08-03T02:28:16;-20474.88;;;18.10;93.05
16777;BME280;8505;49.456;8.164;2022-08-03T02:30:49;-20474.25;;;18.08;93.24
16777;BME280;8505;49.456;8.164;2022-08-03T02:33:24;-20475.63;;;18.12;93.02
16777;BME280;8505;49.456;8.164;2022-08-03T02:35:53;-20475.94;;;18.13;93.15
16777;BME280;8505;49.456;8.164;2022-08-03T02:38:26;-20472.44;;;18.01;93.75
16777;BME280;8505;49.456;8.164;2022-08-03T02:40:56;-20472.44;;;18.01;93.83
16777;BME280;8505;49.456;8.164;2022-08-03T02:43:25;-20470.47;;;17.95;94.54
16777;BME280;8505;49.456;8.164;2022-08-03T02:46:18;-20468.47;;;17.88;94.90
16777;BME280;8505;49.456;8.164;2022-08-03T02:48:48;-20468.03;;;17.87;95.12
16777;BME280;8505;49.456;8.164;2022-08-03T02:51:19;-20465.91;;;17.80;95.90
16777;BME280;8505;49.456;8.164;2022-08-03T02:53:47;-20466.06;;;17.80;95.94
16777;BME280;8505;49.456;8.164;2022-08-03T02:56:17;-20465.59;;;17.79;96.04
16777;BME280;8505;49.456;8.164;2022-08-03T02:58:46;-20463.63;;;17.72;96.25
16777;BME280;8505;49.456;8.164;2022-08-03T03:01:18;-20465.28;;;17.78;95.80
16777;BME280;8505;49.456;8.164;2022-08-03T03:03:46;-20461.50;;;17.65;96.85
16777;BME280;8505;49.456;8.164;2022-08-03T03:06:16;-20460.72;;;17.62;96.88
16777;BME280;8505;49.456;8.164;2022-08-03T03:08:48;-20459.50;;;17.58;97.52
16777;BME280;8505;49.456;8.164;2022-08-03T03:11:18;-20460.13;;;17.60;97.39
16777;BME280;8505;49.456;8.164;2022-08-03T03:13:47;-20459.81;;;17.59;97.60
16777;BME280;8505;49.456;8.164;2022-08-03T03:16:17;-20458.91;;;17.56;97.78
16777;BME280;8505;49.456;8.164;2022-08-03T03:18:46;-20456.91;;;17.50;98.35
16777;BME280;8505;49.456;8.164;2022-08-03T03:21:17;-20458.28;;;17.54;97.81
16777;BME280;8505;49.456;8.164;2022-08-03T03:23:46;-20457.69;;;17.52;97.95
16777;BME280;8505;49.456;8.164;2022-08-03T03:26:15;-20455.25;;;17.44;98.72
16777;BME280;8505;49.456;8.164;2022-08-03T03:28:44;-20454.63;;;17.42;98.70
16777;BME280;8505;49.456;8.164;2022-08-03T03:31:12;-20454.34;;;17.41;98.90
16777;BME280;8505;49.456;8.164;2022-08-03T03:33:42;-20453.28;;;17.38;99.04
16777;BME280;8505;49.456;8.164;2022-08-03T03:36:10;-20454.34;;;17.41;98.81
16777;BME280;8505;49.456;8.164;2022-08-03T03:38:37;-20455.84;;;17.46;98.70
16777;BME280;8505;49.456;8.164;2022-08-03T03:41:05;-20453.72;;;17.39;99.02
16777;BME280;8505;49.456;8.164;2022-08-03T03:43:33;-20453.72;;;17.39;99.39
16777;BME280;8505;49.456;8.164;2022-08-03T03:46:01;-20450.84;;;17.29;100.00
16777;BME280;8505;49.456;8.164;2022-08-03T03:48:29;-20453.13;;;17.37;99.15
16777;BME280;8505;49.456;8.164;2022-08-03T03:50:59;-20452.19;;;17.34;99.46
16777;BME280;8505;49.456;8.164;2022-08-03T03:53:27;-20450.38;;;17.28;99.93
16777;BME280;8505;49.456;8.164;2022-08-03T03:55:55;-20450.06;;;17.27;100.00
16777;BME280;8505;49.456;8.164;2022-08-03T03:58:27;-20448.56;;;17.22;100.00
16777;BME280;8505;49.456;8.164;2022-08-03T04:00:55;-20448.84;;;17.23;100.00
16777;BME280;8505;49.456;8.164;2022-08-03T04:03:23;-20447.66;;;17.19;100.00
16777;BME280;8505;49.456;8.164;2022-08-03T04:05:51;-20447.34;;;17.18;100.00
16777;BME280;8505;49.456;8.164;2022-08-03T04:08:39;-20447.66;;;17.19;100.00
16777;BME280;8505;49.456;8.164;2022-08-03T04:11:27;-20445.97;;;17.13;100.00
16777;BME280;8505;49.456;8.164;2022-08-03T04:13:59;-20447.03;;;17.17;100.00
16777;BME280;8505;49.456;8.164;2022-08-03T04:16:31;-20445.97;;;17.13;100.00
16777;BME280;8505;49.456;8.164;2022-08-03T04:19:08;-20446.88;;;17.16;100.00
16777;BME280;8505;49.456;8.164;2022-08-03T04:21:40;-20447.34;;;17.18;100.00
16777;BME280;8505;49.456;8.164;2022-08-03T04:24:12;-20449.31;;;17.24;100.00
16777;BME280;8505;49.456;8.164;2022-08-03T04:26:42;-20449.00;;;17.23;100.00
16777;BME280;8505;49.456;8.164;2022-08-03T04:29:14;-20453.28;;;17.38;100.00
16777;BME280;8505;49.456;8.164;2022-08-03T04:31:44;-20451.91;;;17.33;100.00
16777;BME280;8505;49.456;8.164;2022-08-03T04:34:13;-20455.84;;;17.46;99.16
16777;BME280;8505;49.456;8.164;2022-08-03T04:36:44;-20459.50;;;17.58;98.08
16777;BME280;8505;49.456;8.164;2022-08-03T04:39:18;-20460.13;;;17.60;97.90
16777;BME280;8505;49.456;8.164;2022-08-03T04:41:47;-20462.84;;;17.70;97.57
16777;BME280;8505;49.456;8.164;2022-08-03T04:44:35;-20462.56;;;17.69;97.15
16777;BME280;8505;49.456;8.164;2022-08-03T04:47:04;-20463.31;;;17.71;97.00
16777;BME280;8505;49.456;8.164;2022-08-03T04:49:34;-20466.81;;;17.83;96.35
16777;BME280;8505;49.456;8.164;2022-08-03T04:52:03;-20470.91;;;17.96;95.19
16777;BME280;8505;49.456;8.164;2022-08-03T04:54:40;-20481.72;;;18.32;93.92
16777;BME280;8505;49.456;8.164;2022-08-03T04:57:14;-20481.72;;;18.32;92.47
16777;BME280;8505;49.456;8.164;2022-08-03T04:59:48;-20481.41;;;18.31;93.27
16777;BME280;8505;49.456;8.164;2022-08-03T05:02:26;-20481.25;;;18.31;92.41
16777;BME280;8505;49.456;8.164;2022-08-03T05:04:54;-20482.63;;;18.35;92.24
16777;BME280;8505;49.456;8.164;2022-08-03T05:07:21;-20486.88;;;18.50;91.75
16777;BME280;8505;49.456;8.164;2022-08-03T05:09:52;-20490.69;;;18.62;90.55
16777;BME280;8505;49.456;8.164;2022-08-03T05:12:28;-20489.16;;;18.57;91.16
16777;BME280;8505;49.456;8.164;2022-08-03T05:14:59;-20495.38;;;18.78;89.86
16777;BME280;8505;49.456;8.164;2022-08-03T05:17:27;-20492.97;;;18.70;90.01
16777;BME280;8505;49.456;8.164;2022-08-03T05:19:55;-20497.22;;;18.84;88.74
16777;BME280;8505;49.456;8.164;2022-08-03T05:22:23;-20506.47;;;19.15;87.45
16777;BME280;8505;49.456;8.164;2022-08-03T05:24:52;-20506.78;;;19.16;87.10
16777;BME280;8505;49.456;8.164;2022-08-03T05:27:20;-20504.81;;;19.09;86.97
16777;BME280;8505;49.456;8.164;2022-08-03T05:29:49;-20504.50;;;19.08;87.01
16777;BME280;8505;49.456;8.164;2022-08-03T05:32:17;-20506.31;;;19.15;86.86
16777;BME280;8505;49.456;8.164;2022-08-03T05:34:45;-20517.88;;;19.53;85.18
16777;BME280;8505;49.456;8.164;2022-08-03T05:37:12;-20515.75;;;19.46;84.92
16777;BME280;8505;49.456;8.164;2022-08-03T05:39:40;-20517.88;;;19.53;84.91
16777;BME280;8505;49.456;8.164;2022-08-03T05:42:10;-20526.38;;;19.81;82.88
16777;BME280;8505;49.456;8.164;2022-08-03T05:44:37;-20531.38;;;19.98;81.77
16777;BME280;8505;49.456;8.164;2022-08-03T05:47:06;-20533.50;;;20.05;81.74
16777;BME280;8505;49.456;8.164;2022-08-03T05:49:34;-20540.19;;;20.28;79.73
16777;BME280;8505;49.456;8.164;2022-08-03T05:52:02;-20551.72;;;20.66;77.41
16777;BME280;8505;49.456;8.164;2022-08-03T05:54:47;-20558.38;;;20.88;76.40
16777;BME280;8505;49.456;8.164;2022-08-03T05:57:24;-20566.88;;;21.17;74.33
16777;BME280;8505;49.456;8.164;2022-08-03T05:59:52;-20569.78;;;21.26;74.00
16777;BME280;8505;49.456;8.164;2022-08-03T06:02:24;-20569.47;;;21.25;73.61
16777;BME280;8505;49.456;8.164;2022-08-03T06:04:52;-20577.97;;;21.54;72.25
16777;BME280;8505;49.456;8.164;2022-08-03T06:07:20;-20588.56;;;21.89;70.16
16777;BME280;8505;49.456;8.164;2022-08-03T06:09:47;-20609.16;;;22.58;66.73
16777;BME280;8505;49.456;8.164;2022-08-03T06:12:37;-20625.06;;;23.11;63.18
16777;BME280;8505;49.456;8.164;2022-08-03T06:15:07;-20631.28;;;23.32;61.53
16777;BME280;8505;49.456;8.164;2022-08-03T06:17:43;-20635.81;;;23.47;60.47
16777;BME280;8505;49.456;8.164;2022-08-03T06:20:12;-20646.09;;;23.82;59.78
16777;BME280;8505;49.456;8.164;2022-08-03T06:22:39;-20651.25;;;23.99;57.39
16777;BME280;8505;49.456;8.164;2022-08-03T06:25:17;-20665.59;;;24.47;56.04
16777;BME280;8505;49.456;8.164;2022-08-03T06:27:48;-20667.88;;;24.55;55.93
16777;BME280;8505;49.456;8.164;2022-08-03T06:30:16;-20679.22;;;24.93;54.21
16777;BME280;8505;49.456;8.164;2022-08-03T06:32:47;-20681.78;;;25.02;52.84
16777;BME280;8505;49.456;8.164;2022-08-03T06:35:18;-20700.53;;;25.64;51.35
16777;BME280;8505;49.456;8.164;2022-08-03T06:37:47;-20711.38;;;26.01;49.94
16777;BME280;8505;49.456;8.164;2022-08-03T06:40:16;-20721.19;;;26.34;49.16
16777;BME280;8505;49.456;8.164;2022-08-03T06:42:51;-20729.50;;;26.62;48.67
16777;BME280;8505;49.456;8.164;2022-08-03T06:45:19;-20733.56;;;26.75;47.31
16777;BME280;8505;49.456;8.164;2022-08-03T06:47:59;-20763.28;;;27.75;44.55
16777;BME280;8505;49.456;8.164;2022-08-03T06:50:27;-20762.97;;;27.74;43.35
16777;BME280;8505;49.456;8.164;2022-08-03T06:52:55;-20784.06;;;28.45;41.92
16777;BME280;8505;49.456;8.164;2022-08-03T06:55:23;-20813.56;;;29.45;40.10
16777;BME280;8505;49.456;8.164;2022-08-03T06:57:53;-20783.75;;;28.44;40.36
16777;BME280;8505;49.456;8.164;2022-08-03T07:00:26;-20804.38;;;29.14;39.58
16777;BME280;8505;49.456;8.164;2022-08-03T07:02:54;-20809.94;;;29.33;38.94
16777;BME280;8505;49.456;8.164;2022-08-03T07:05:24;-20817.16;;;29.57;38.45
16777;BME280;8505;49.456;8.164;2022-08-03T07:07:54;-20834.91;;;30.17;38.34
16777;BME280;8505;49.456;8.164;2022-08-03T07:10:22;-20844.81;;;30.50;37.80
16777;BME280;8505;49.456;8.164;2022-08-03T07:12:50;-20848.00;;;30.61;36.32
16777;BME280;8505;49.456;8.164;2022-08-03T07:15:23;-20854.16;;;30.82;36.66
16777;BME280;8505;49.456;8.164;2022-08-03T07:18:11;-20867.06;;;31.25;35.66
16777;BME280;8505;49.456;8.164;2022-08-03T07:20:39;-20869.63;;;31.34;35.20
16777;BME280;8505;49.456;8.164;2022-08-03T07:23:07;-20874.13;;;31.49;35.22
16777;BME280;8505;49.456;8.164;2022-08-03T07:25:44;-20867.22;;;31.26;35.12
16777;BME280;8505;49.456;8.164;2022-08-03T07:28:12;-20879.38;;;31.67;35.29
16777;BME280;8505;49.456;8.164;2022-08-03T07:30:41;-20866.75;;;31.24;35.31
16777;BME280;8505;49.456;8.164;2022-08-03T07:33:09;-20868.09;;;31.29;35.67
16777;BME280;8505;49.456;8.164;2022-08-03T07:35:37;-20873.06;;;31.45;35.45
16777;BME280;8505;49.456;8.164;2022-08-03T07:38:04;-20862.41;;;31.09;35.37
16777;BME280;8505;49.456;8.164;2022-08-03T07:40:32;-20864.97;;;31.18;35.45
16777;BME280;8505;49.456;8.164;2022-08-03T07:43:01;-20873.34;;;31.46;35.21
16777;BME280;8505;49.456;8.164;2022-08-03T07:45:29;-20875.63;;;31.54;34.74
16777;BME280;8505;49.456;8.164;2022-08-03T07:47:59;-20884.78;;;31.85;34.72
16777;BME280;8505;49.456;8.164;2022-08-03T07:50:27;-20909.34;;;32.68;33.78
16777;BME280;8505;49.456;8.164;2022-08-03T07:52:55;-20915.06;;;32.87;32.44
16777;BME280;8505;49.456;8.164;2022-08-03T07:55:24;-20894.22;;;32.17;33.32
16777;BME280;8505;49.456;8.164;2022-08-03T07:58:00;-20894.81;;;32.19;32.81
16777;BME280;8505;49.456;8.164;2022-08-03T08:00:28;-20885.66;;;31.88;32.15
16777;BME280;8505;49.456;8.164;2022-08-03T08:02:56;-20893.78;;;32.15;32.26
16777;BME280;8505;49.456;8.164;2022-08-03T08:05:25;-20900.38;;;32.38;31.92
16777;BME280;8505;49.456;8.164;2022-08-03T08:07:54;-20917.47;;;32.96;31.71
16777;BME280;8505;49.456;8.164;2022-08-03T08:10:22;-20922.84;;;33.14;31.58
16777;BME280;8505;49.456;8.164;2022-08-03T08:12:49;-20927.34;;;33.29;30.91
16777;BME280;8505;49.456;8.164;2022-08-03T08:15:17;-20894.06;;;32.16;32.09
16777;BME280;8505;49.456;8.164;2022-08-03T08:17:47;-20914.63;;;32.86;31.55
16777;BME280;8505;49.456;8.164;2022-08-03T08:20:17;-20935.28;;;33.56;31.06
16777;BME280;8505;49.456;8.164;2022-08-03T08:22:56;-20915.50;;;32.89;31.33
16777;BME280;8505;49.456;8.164;2022-08-03T08:25:27;-20909.66;;;32.69;31.35
16777;BME280;8505;49.456;8.164;2022-08-03T08:27:55;-20917.47;;;32.96;31.13
16777;BME280;8505;49.456;8.164;2022-08-03T08:30:44;-20898.72;;;32.32;31.49
16777;BME280;8505;49.456;8.164;2022-08-03T08:33:12;-20903.38;;;32.48;31.40
16777;BME280;8505;49.456;8.164;2022-08-03T08:35:49;-20912.97;;;32.80;30.71
16777;BME280;8505;49.456;8.164;2022-08-03T08:38:18;-20917.47;;;32.96;30.68
16777;BME280;8505;49.456;8.164;2022-08-03T08:40:46;-20940.53;;;33.74;29.56
16777;BME280;8505;49.456;8.164;2022-08-03T08:43:14;-20942.91;;;33.82;29.20
16777;BME280;8505;49.456;8.164;2022-08-03T08:45:42;-20949.81;;;34.05;29.46
16777;BME280;8505;49.456;8.164;2022-08-03T08:48:12;-20942.63;;;33.81;29.49
16777;BME280;8505;49.456;8.164;2022-08-03T08:50:40;-20959.69;;;34.39;28.40
16777;BME280;8505;49.456;8.164;2022-08-03T08:53:10;-20948.47;;;34.01;28.54
16777;BME280;8505;49.456;8.164;2022-08-03T08:55:46;-20957.88;;;34.32;28.62
16777;BME280;8505;49.456;8.164;2022-08-03T08:58:28;-20958.19;;;34.33;28.71
16777;BME280;8505;49.456;8.164;2022-08-03T09:00:56;-20951.31;;;34.10;29.08
16777;BME280;8505;49.456;8.164;2022-08-03T09:03:24;-20944.41;;;33.87;29.83
16777;BME280;8505;49.456;8.164;2022-08-03T09:05:58;-20944.41;;;33.87;29.30
16777;BME280;8505;49.456;8.164;2022-08-03T09:08:26;-20936.63;;;33.60;28.92
16777;BME280;8505;49.456;8.164;2022-08-03T09:10:55;-20957.28;;;34.30;28.55
16777;BME280;8505;49.456;8.164;2022-08-03T09:13:23;-20956.09;;;34.26;29.00
16777;BME280;8505;49.456;8.164;2022-08-03T09:16:09;-20942.19;;;33.79;29.23
16777;BME280;8505;49.456;8.164;2022-08-03T09:18:37;-20956.84;;;34.29;28.21
16777;BME280;8505;49.456;8.164;2022-08-03T09:21:13;-20961.94;;;34.46;28.46
16777;BME280;8505;49.456;8.164;2022-08-03T09:23:58;-20974.66;;;34.89;27.52
16777;BME280;8505;49.456;8.164;2022-08-03T09:26:35;-20986.47;;;35.29;27.56
16777;BME280;8505;49.456;8.164;2022-08-03T09:29:04;-20985.72;;;35.27;27.34
16777;BME280;8505;49.456;8.164;2022-08-03T09:31:41;-21001.84;;;35.82;27.41
16777;BME280;8505;49.456;8.164;2022-08-03T09:34:13;-20990.19;;;35.42;27.24
16777;BME280;8505;49.456;8.164;2022-08-03T09:36:42;-20987.94;;;35.34;26.64
16777;BME280;8505;49.456;8.164;2022-08-03T09:39:12;-20996.47;;;35.63;26.37
16777;BME280;8505;49.456;8.164;2022-08-03T09:41:42;-20999.31;;;35.73;26.76
16777;BME280;8505;49.456;8.164;2022-08-03T09:44:10;-21024.69;;;36.59;25.47
16777;BME280;8505;49.456;8.164;2022-08-03T09:46:53;-21015.88;;;36.29;25.74
16777;BME280;8505;49.456;8.164;2022-08-03T09:49:21;-21000.06;;;35.75;26.90
16777;BME280;8505;49.456;8.164;2022-08-03T09:51:49;-21014.53;;;36.25;26.09
16777;BME280;8505;49.456;8.164;2022-08-03T09:54:38;-20997.06;;;35.65;26.57
16777;BME280;8505;49.456;8.164;2022-08-03T09:57:07;-20991.09;;;35.45;26.99
16777;BME280;8505;49.456;8.164;2022-08-03T09:59:35;-20971.06;;;34.77;27.66
16777;BME280;8505;49.456;8.164;2022-08-03T10:02:04;-20991.84;;;35.48;27.22
16777;BME280;8505;49.456;8.164;2022-08-03T10:04:32;-21007.22;;;36.00;26.81
16777;BME280;8505;49.456;8.164;2022-08-03T10:07:02;-21013.78;;;36.22;26.31
16777;BME280;8505;49.456;8.164;2022-08-03T10:09:31;-21003.34;;;35.87;26.03
16777;BME280;8505;49.456;8.164;2022-08-03T10:12:07;-21014.38;;;36.24;26.30
16777;BME280;8505;49.456;8.164;2022-08-03T10:14:36;-21035.28;;;36.95;25.32
16777;BME280;8505;49.456;8.164;2022-08-03T10:17:05;-20996.47;;;35.63;26.42
16777;BME280;8505;49.456;8.164;2022-08-03T10:19:32;-21000.34;;;35.76;26.55
16777;BME280;8505;49.456;8.164;2022-08-03T10:22:02;-21013.78;;;36.22;26.59
16777;BME280;8505;49.456;8.164;2022-08-03T10:24:33;-21024.69;;;36.59;26.40
16777;BME280;8505;49.456;8.164;2022-08-03T10:27:03;-21013.50;;;36.21;26.26
16777;BME280;8505;49.456;8.164;2022-08-03T10:29:37;-21008.41;;;36.04;26.09
16777;BME280;8505;49.456;8.164;2022-08-03T10:32:13;-21000.81;;;35.78;26.52
16777;BME280;8505;49.456;8.164;2022-08-03T10:34:43;-21022.75;;;36.53;25.73
16777;BME280;8505;49.456;8.164;2022-08-03T10:37:13;-21020.22;;;36.44;25.73
16777;BME280;8505;49.456;8.164;2022-08-03T10:39:43;-21031.09;;;36.81;25.30
16777;BME280;8505;49.456;8.164;2022-08-03T10:42:22;-21017.06;;;36.33;26.28
16777;BME280;8505;49.456;8.164;2022-08-03T10:45:00;-21030.34;;;36.78;26.17
16777;BME280;8505;49.456;8.164;2022-08-03T10:47:29;-21023.94;;;36.57;26.19
16777;BME280;8505;49.456;8.164;2022-08-03T10:49:58;-21028.72;;;36.73;25.69
16777;BME280;8505;49.456;8.164;2022-08-03T10:52:26;-21016.47;;;36.31;26.12
16777;BME280;8505;49.456;8.164;2022-08-03T10:55:28;-21017.38;;;36.34;25.98
16777;BME280;8505;49.456;8.164;2022-08-03T10:58:14;-21022.91;;;36.53;26.12
16777;BME280;8505;49.456;8.164;2022-08-03T11:00:57;-21022.91;;;36.53;26.10
16777;BME280;8505;49.456;8.164;2022-08-03T11:03:25;-21008.84;;;36.05;26.47
16777;BME280;8505;49.456;8.164;2022-08-03T11:05:53;-21035.28;;;36.95;26.04
16777;BME280;8505;49.456;8.164;2022-08-03T11:08:40;-21032.59;;;36.86;25.56
16777;BME280;8505;49.456;8.164;2022-08-03T11:11:24;-21029.31;;;36.75;25.66
16777;BME280;8505;49.456;8.164;2022-08-03T11:13:58;-21046.63;;;37.34;25.42
16777;BME280;8505;49.456;8.164;2022-08-03T11:16:30;-21061.06;;;37.83;24.78
16777;BME280;8505;49.456;8.164;2022-08-03T11:19:01;-21043.34;;;37.22;25.70
16777;BME280;8505;49.456;8.164;2022-08-03T11:21:52;-21019.31;;;36.41;26.79
16777;BME280;8505;49.456;8.164;2022-08-03T11:27:27;-21046.31;;;37.33;25.91
16777;BME280;8505;49.456;8.164;2022-08-03T11:29:58;-21032.75;;;36.86;26.36
16777;BME280;8505;49.456;8.164;2022-08-03T11:32:53;-21054.38;;;37.60;25.79
16777;BME280;8505;49.456;8.164;2022-08-03T11:35:23;-21056.44;;;37.67;25.56
16777;BME280;8505;49.456;8.164;2022-08-03T11:38:07;-21052.44;;;37.53;25.92
16777;BME280;8505;49.456;8.164;2022-08-03T11:40:46;-21050.03;;;37.45;25.86
16777;BME280;8505;49.456;8.164;2022-08-03T11:43:43;-21051.69;;;37.51;25.75
16777;BME280;8505;49.456;8.164;2022-08-03T11:46:13;-21044.22;;;37.26;26.16
16777;BME280;8505;49.456;8.164;2022-08-03T11:49:02;-21056.75;;;37.68;25.19
16777;BME280;8505;49.456;8.164;2022-08-03T11:51:36;-21003.34;;;35.87;27.04
16777;BME280;8505;49.456;8.164;2022-08-03T11:54:05;-21024.25;;;36.58;26.79
16777;BME280;8505;49.456;8.164;2022-08-03T11:56:43;-21044.38;;;37.26;26.17
16777;BME280;8505;49.456;8.164;2022-08-03T11:59:11;-21055.72;;;37.65;25.31
16777;BME280;8505;49.456;8.164;2022-08-03T12:01:47;-21048.84;;;37.41;25.46
16777;BME280;8505;49.456;8.164;2022-08-03T12:04:16;-21059.13;;;37.76;25.28
16777;BME280;8505;49.456;8.164;2022-08-03T12:06:57;-21062.72;;;37.88;25.28
16777;BME280;8505;49.456;8.164;2022-08-03T12:09:24;-21048.09;;;37.39;25.46
16777;BME280;8505;49.456;8.164;2022-08-03T12:11:53;-21037.06;;;37.01;25.98
16777;BME280;8505;49.456;8.164;2022-08-03T12:14:27;-21057.19;;;37.70;25.14
16777;BME280;8505;49.456;8.164;2022-08-03T12:17:15;-21060.78;;;37.82;25.48
16777;BME280;8505;49.456;8.164;2022-08-03T12:19:44;-21060.94;;;37.82;25.24
16777;BME280;8505;49.456;8.164;2022-08-03T12:22:12;-21063.31;;;37.90;25.17
16777;BME280;8505;49.456;8.164;2022-08-03T12:24:41;-21050.50;;;37.47;25.29
16777;BME280;8505;49.456;8.164;2022-08-03T12:27:21;-21062.13;;;37.86;25.13
16777;BME280;8505;49.456;8.164;2022-08-03T12:29:50;-21080.59;;;38.49;25.33
16777;BME280;8505;49.456;8.164;2022-08-03T12:32:25;-21086.09;;;38.68;24.32
16777;BME280;8505;49.456;8.164;2022-08-03T12:34:55;-21092.63;;;38.90;24.32
16777;BME280;8505;49.456;8.164;2022-08-03T12:37:26;-21097.41;;;39.07;23.39
16777;BME280;8505;49.456;8.164;2022-08-03T12:39:57;-21088.63;;;38.77;23.29
16777;BME280;8505;49.456;8.164;2022-08-03T12:42:36;-21082.38;;;38.55;23.38
16777;BME280;8505;49.456;8.164;2022-08-03T12:45:17;-21085.94;;;38.68;23.40
16777;BME280;8505;49.456;8.164;2022-08-03T12:47:52;-21085.66;;;38.67;23.29
16777;BME280;8505;49.456;8.164;2022-08-03T12:50:26;-21089.50;;;38.80;22.42
16777;BME280;8505;49.456;8.164;2022-08-03T12:52:55;-21086.38;;;38.69;22.18
16777;BME280;8505;49.456;8.164;2022-08-03T12:55:24;-21096.06;;;39.02;22.35
16777;BME280;8505;49.456;8.164;2022-08-03T12:58:28;-21090.25;;;38.82;22.32
16777;BME280;8505;49.456;8.164;2022-08-03T13:00:59;-21084.59;;;38.63;22.53
16777;BME280;8505;49.456;8.164;2022-08-03T13:03:38;-21090.41;;;38.83;22.73
16777;BME280;8505;49.456;8.164;2022-08-03T13:06:13;-21090.41;;;38.83;22.15
16777;BME280;8505;49.456;8.164;2022-08-03T13:08:42;-21088.63;;;38.77;22.91
16777;BME280;8505;49.456;8.164;2022-08-03T13:11:18;-21100.53;;;39.17;21.96
16777;BME280;8505;49.456;8.164;2022-08-03T13:13:47;-21087.13;;;38.72;22.16
16777;BME280;8505;49.456;8.164;2022-08-03T13:16:15;-21097.56;;;39.07;21.65
16777;BME280;8505;49.456;8.164;2022-08-03T13:18:45;-21096.66;;;39.04;21.46
16777;BME280;8505;49.456;8.164;2022-08-03T13:21:15;-21103.81;;;39.28;21.90
16777;BME280;8505;49.456;8.164;2022-08-03T13:23:44;-21102.91;;;39.25;22.12
16777;BME280;8505;49.456;8.164;2022-08-03T13:26:12;-21108.88;;;39.46;21.25
16777;BME280;8505;49.456;8.164;2022-08-03T13:28:40;-21097.56;;;39.07;21.50